createdAt,value
2022-07-31T00:02:12.310Z,0
2022-07-31T00:11:49.384Z,0
2022-07-31T00:21:26.759Z,0
2022-07-31T00:31:04.206Z,0
2022-07-31T00:50:18.689Z,0
2022-07-31T00:59:55.789Z,0
2022-07-31T01:09:32.857Z,0
2022-07-31T01:19:10.057Z,0
2022-07-31T01:28:47.288Z,0
2022-07-31T01:38:24.578Z,0
2022-07-31T01:57:38.409Z,0
2022-07-31T02:26:29.772Z,0
2022-07-31T02:36:06.935Z,0
2022-07-31T02:55:21.133Z,0
2022-07-31T03:14:35.701Z,0
2022-07-31T03:24:12.667Z,0
2022-07-31T03:33:49.653Z,0
2022-07-31T03:43:26.130Z,11.25
2022-07-31T03:53:03.293Z,16.88
2022-07-31T04:12:17.906Z,50.63
2022-07-31T04:21:55.947Z,67.5
2022-07-31T04:31:34.034Z,78.75
2022-07-31T04:41:11.883Z,78.75
2022-07-31T05:19:42.188Z,106.88
2022-07-31T05:29:19.723Z,146.25
2022-07-31T05:38:57.247Z,163.13
2022-07-31T05:48:34.997Z,208.13
2022-07-31T06:07:52.234Z,236.25
2022-07-31T06:27:08.686Z,286.88
2022-07-31T06:46:24.246Z,331.88
2022-07-31T06:56:03.122Z,365.63
2022-07-31T07:05:45.139Z,388.13
2022-07-31T07:15:20.312Z,427.5
2022-07-31T07:24:58.538Z,376.88
2022-07-31T07:44:11.018Z,230.63
2022-07-31T07:53:47.852Z,264.38
2022-07-31T08:03:47.982Z,455.63
2022-07-31T08:13:08.947Z,675
2022-07-31T08:42:10.220Z,720
2022-07-31T08:51:50.448Z,686.25
2022-07-31T09:01:28.411Z,669.38
2022-07-31T09:11:06.397Z,562.5
2022-07-31T09:20:40.704Z,405
2022-07-31T09:30:19.072Z,461.25
2022-07-31T09:40:07.313Z,3549.38
2022-07-31T09:49:49.316Z,1811.25
2022-07-31T09:59:26.557Z,1389.38
2022-07-31T10:18:44.464Z,1603.13
2022-07-31T10:28:27.039Z,1378.13
2022-07-31T10:47:40.924Z,2160
2022-07-31T10:57:24.608Z,1783.13
2022-07-31T11:07:07.831Z,3448.13
2022-07-31T11:26:41.215Z,3290.63
2022-07-31T11:35:59.341Z,2615.63
2022-07-31T11:45:40.960Z,3706.88
2022-07-31T11:55:24.745Z,3375
2022-07-31T12:05:08.260Z,3414.38
2022-07-31T12:14:43.647Z,832.5
2022-07-31T12:24:07.447Z,810
2022-07-31T12:33:40.377Z,3459.38
2022-07-31T12:43:32.092Z,3268.13
2022-07-31T12:52:58.036Z,1276.88
2022-07-31T13:02:37.496Z,2581.88
2022-07-31T13:12:09.297Z,956.25
2022-07-31T13:21:48.647Z,1091.25
2022-07-31T13:31:16.521Z,596.25
2022-07-31T13:40:52.741Z,1125
2022-07-31T13:50:42.642Z,1653.75
2022-07-31T14:29:11.393Z,461.25
2022-07-31T14:38:48.917Z,641.25
2022-07-31T14:48:27.509Z,804.38
2022-07-31T15:07:49.368Z,1012.5
2022-07-31T15:26:55.372Z,174.38
2022-07-31T15:46:07.155Z,73.13
2022-07-31T15:55:43.518Z,67.5
2022-07-31T16:14:57.713Z,123.75
2022-07-31T16:34:13.487Z,118.13
2022-07-31T16:43:51.866Z,101.25
2022-07-31T16:53:34.782Z,106.88
2022-07-31T17:03:04.945Z,101.25
2022-07-31T17:22:19.992Z,61.88
2022-07-31T17:31:55.988Z,33.75
2022-07-31T17:51:07.521Z,28.13
2022-07-31T18:10:27.926Z,28.13
2022-07-31T18:29:34.969Z,11.25
2022-07-31T18:39:11.403Z,5.63
2022-07-31T18:58:25.960Z,0
2022-07-31T19:08:01.513Z,0
2022-07-31T19:17:43.930Z,0
2022-07-31T19:27:15.672Z,0
2022-07-31T19:46:29.360Z,0
2022-07-31T20:05:43.808Z,0
2022-07-31T20:15:20.904Z,0
2022-07-31T20:24:58.351Z,0
2022-07-31T20:34:35.907Z,0
2022-07-31T20:53:50.632Z,0
2022-07-31T21:03:28.517Z,0
2022-07-31T21:13:06.097Z,0
2022-07-31T21:22:43.507Z,0
2022-07-31T21:32:20.577Z,0
2022-07-31T21:51:34.929Z,0
2022-07-31T22:01:11.928Z,0
2022-07-31T22:10:48.880Z,0
2022-07-31T22:30:02.822Z,0
2022-07-31T22:39:39.684Z,0
2022-07-31T22:49:16.578Z,0
2022-07-31T22:58:53.687Z,0
2022-07-31T23:08:30.537Z,0
2022-07-31T23:18:07.327Z,0
2022-07-31T23:27:44.650Z,0
2022-07-31T23:37:22.211Z,0
2022-07-31T23:46:59.998Z,0
2022-07-31T23:56:37.770Z,0
